Time;durP1;ratioP1;P1;durP2;ratioP2;P2;SDS_P1;SDS_P2;PMS_P1;PMS_P2;Temp;Humidity;BMP_temperature;BMP_pressure;BME280_temperature;BME280_humidity;BME280_pressure;Samples;Min_cycle;Max_cycle;Signal;HPM_P1;HPM_P2
2023/01/31 00:01:27;;;;;;;19.70;13.30;;;;;;;-128.00;-1.00;-1.00;104826;1264;1005192;-82
2023/01/31 00:03:56;;;;;;;17.30;11.80;;;;;;;-128.00;-1.00;-1.00;104992;1264;1059932;-83
2023/01/31 00:06:27;;;;;;;19.80;15.10;;;;;;;-128.00;-1.00;-1.00;104885;1264;1046403;-82
2023/01/31 00:08:54;;;;;;;18.20;14.10;;;;;;;-128.00;-1.00;-1.00;105057;1264;1046487;-82
2023/01/31 00:11:23;;;;;;;18.70;12.30;;;;;;;-128.00;-1.00;-1.00;104974;1263;1004182;-83
2023/01/31 00:13:51;;;;;;;18.20;12.60;;;;;;;-128.00;-1.00;-1.00;104845;1264;1055604;-83
2023/01/31 00:16:19;;;;;;;17.00;12.00;;;;;;;-128.00;-1.00;-1.00;104877;1264;1003649;-82
2023/01/31 00:18:46;;;;;;;15.40;11.70;;;;;;;-128.00;-1.00;-1.00;104971;1264;1004891;-83
2023/01/31 00:21:14;;;;;;;20.80;13.70;;;;;;;-128.00;-1.00;-1.00;104969;1263;1003458;-83
2023/01/31 00:23:43;;;;;;;17.50;12.90;;;;;;;-128.00;-1.00;-1.00;105011;1263;1003796;-83
2023/01/31 00:26:13;;;;;;;18.70;12.10;;;;;;;-128.00;-1.00;-1.00;104990;1263;1004158;-83
2023/01/31 00:28:43;;;;;;;15.60;11.70;;;;;;;-128.00;-1.00;-1.00;104978;1264;1058745;-83
2023/01/31 00:31:11;;;;;;;11.80;9.40;;;;;;;-128.00;-1.00;-1.00;104827;1264;1045186;-83
2023/01/31 00:33:39;;;;;;;12.60;10.10;;;;;;;-128.00;-1.00;-1.00;105000;1264;1004303;-81
2023/01/31 00:36:09;;;;;;;12.60;8.80;;;;;;;-128.00;-1.00;-1.00;104953;1263;1061013;-82
2023/01/31 00:38:35;;;;;;;12.60;10.70;;;;;;;-128.00;-1.00;-1.00;104595;1263;1056451;-82
2023/01/31 00:41:03;;;;;;;11.70;9.60;;;;;;;-128.00;-1.00;-1.00;104189;1263;1004167;-82
2023/01/31 00:43:31;;;;;;;10.30;7.40;;;;;;;-128.00;-1.00;-1.00;104965;1264;1003814;-82
2023/01/31 00:45:58;;;;;;;8.60;7.20;;;;;;;-128.00;-1.00;-1.00;105002;1264;1004202;-82
2023/01/31 00:48:25;;;;;;;10.00;7.60;;;;;;;-128.00;-1.00;-1.00;104971;1263;1004582;-82
2023/01/31 00:50:52;;;;;;;9.30;7.20;;;;;;;-128.00;-1.00;-1.00;104865;1264;1004102;-82
2023/01/31 00:53:22;;;;;;;13.00;8.40;;;;;;;-128.00;-1.00;-1.00;104852;1263;1003899;-83
2023/01/31 00:55:53;;;;;;;11.80;8.70;;;;;;;-128.00;-1.00;-1.00;104924;1264;1044625;-82
2023/01/31 00:58:21;;;;;;;10.50;8.40;;;;;;;-128.00;-1.00;-1.00;104961;1264;1047968;-83
2023/01/31 01:00:48;;;;;;;11.30;8.90;;;;;;;-128.00;-1.00;-1.00;104941;1263;1004593;-83
2023/01/31 01:03:14;;;;;;;10.30;8.80;;;;;;;-128.00;-1.00;-1.00;105001;1262;1003977;-82
2023/01/31 01:05:41;;;;;;;10.80;7.80;;;;;;;-128.00;-1.00;-1.00;105002;1262;1004869;-83
2023/01/31 01:08:08;;;;;;;10.60;7.70;;;;;;;-128.00;-1.00;-1.00;104801;1262;1003903;-82
2023/01/31 01:10:37;;;;;;;12.60;8.00;;;;;;;-128.00;-1.00;-1.00;105054;1262;1047385;-83
2023/01/31 01:13:06;;;;;;;11.00;6.80;;;;;;;-128.00;-1.00;-1.00;104832;1262;1003354;-83
2023/01/31 01:15:36;;;;;;;12.70;7.40;;;;;;;-128.00;-1.00;-1.00;105048;1262;1055162;-83
2023/01/31 01:18:03;;;;;;;8.30;5.70;;;;;;;-128.00;-1.00;-1.00;104957;1262;1058648;-82
2023/01/31 01:20:29;;;;;;;8.20;5.20;;;;;;;-128.00;-1.00;-1.00;104979;1262;1004723;-82
2023/01/31 01:22:58;;;;;;;7.70;5.10;;;;;;;-128.00;-1.00;-1.00;105037;1262;1004053;-82
2023/01/31 01:25:24;;;;;;;6.20;3.60;;;;;;;-128.00;-1.00;-1.00;105051;1262;1003526;-82
2023/01/31 01:27:51;;;;;;;9.90;4.80;;;;;;;-128.00;-1.00;-1.00;105037;1262;1003786;-81
2023/01/31 01:30:19;;;;;;;9.80;5.00;;;;;;;-128.00;-1.00;-1.00;105018;1262;1005175;-81
2023/01/31 01:32:45;;;;;;;10.50;4.50;;;;;;;-128.00;-1.00;-1.00;105037;1262;1004788;-82
2023/01/31 01:35:12;;;;;;;9.30;4.30;;;;;;;-128.00;-1.00;-1.00;105030;1262;1003988;-82
2023/01/31 01:37:39;;;;;;;8.00;4.30;;;;;;;-128.00;-1.00;-1.00;104875;1262;1004211;-81
2023/01/31 01:40:07;;;;;;;11.30;3.70;;;;;;;-128.00;-1.00;-1.00;105051;1262;1005065;-81
2023/01/31 01:42:35;;;;;;;12.80;4.20;;;;;;;-128.00;-1.00;-1.00;104888;1262;1060081;-81
2023/01/31 01:45:04;;;;;;;6.00;3.20;;;;;;;-128.00;-1.00;-1.00;104978;1262;1003775;-82
2023/01/31 01:47:33;;;;;;;13.30;4.90;;;;;;;-128.00;-1.00;-1.00;105071;1262;1047964;-82
2023/01/31 01:50:35;;;;;;;11.50;4.90;;;;;;;-128.00;-1.00;-1.00;104825;1262;1061455;-82
2023/01/31 01:53:11;;;;;;;14.50;5.60;;;;;;;-128.00;-1.00;-1.00;104590;1269;1055610;-83
2023/01/31 01:55:43;;;;;;;10.70;4.80;;;;;;;-128.00;-1.00;-1.00;104577;1269;1060824;-82
2023/01/31 01:58:16;;;;;;;8.00;4.20;;;;;;;-128.00;-1.00;-1.00;104590;1269;1045306;-82
2023/01/31 02:00:44;;;;;;;14.00;4.10;;;;;;;-128.00;-1.00;-1.00;104562;1270;1046512;-81
2023/01/31 02:03:11;;;;;;;9.20;4.20;;;;;;;-128.00;-1.00;-1.00;104566;1269;1004381;-82
2023/01/31 02:05:50;;;;;;;7.90;4.00;;;;;;;-128.00;-1.00;-1.00;104550;1269;1004504;-82
2023/01/31 02:08:24;;;;;;;8.30;4.10;;;;;;;-128.00;-1.00;-1.00;104566;1269;1059605;-82
2023/01/31 02:11:11;;;;;;;12.10;4.60;;;;;;;-128.00;-1.00;-1.00;104578;1269;1044920;-82
2023/01/31 02:13:40;;;;;;;8.00;3.30;;;;;;;-128.00;-1.00;-1.00;104609;1269;1046051;-81
2023/01/31 02:16:07;;;;;;;7.70;3.60;;;;;;;-128.00;-1.00;-1.00;104580;1269;1061552;-82
2023/01/31 02:18:34;;;;;;;9.40;3.40;;;;;;;-128.00;-1.00;-1.00;104606;1269;1004389;-82
2023/01/31 02:21:50;;;;;;;12.10;4.20;;;;;;;-128.00;-1.00;-1.00;104593;1269;1004544;-82
2023/01/31 02:24:26;;;;;;;9.20;3.60;;;;;;;-128.00;-1.00;-1.00;104560;1269;1045662;-80
2023/01/31 02:26:52;;;;;;;10.30;3.50;;;;;;;-128.00;-1.00;-1.00;104610;1269;1046593;-81
2023/01/31 02:29:28;;;;;;;11.30;3.30;;;;;;;-128.00;-1.00;-1.00;104634;1262;1003787;-81
2023/01/31 02:31:57;;;;;;;9.80;3.00;;;;;;;-128.00;-1.00;-1.00;104993;1262;1055751;-82
2023/01/31 02:34:40;;;;;;;10.90;3.00;;;;;;;-128.00;-1.00;-1.00;105013;1262;1059136;-82
2023/01/31 02:37:21;;;;;;;9.80;2.90;;;;;;;-128.00;-1.00;-1.00;104987;1262;1046629;-81
2023/01/31 02:39:48;;;;;;;11.10;2.90;;;;;;;-128.00;-1.00;-1.00;105030;1262;1046672;-81
2023/01/31 02:42:20;;;;;;;9.60;3.30;;;;;;;-128.00;-1.00;-1.00;104836;1262;1004483;-83
2023/01/31 02:45:13;;;;;;;13.60;3.40;;;;;;;-128.00;-1.00;-1.00;105040;1262;1054970;-81
2023/01/31 02:48:06;;;;;;;8.70;3.10;;;;;;;-128.00;-1.00;-1.00;105046;1262;1058274;-82
2023/01/31 02:50:57;;;;;;;8.20;2.60;;;;;;;-128.00;-1.00;-1.00;105053;1262;1045437;-82
2023/01/31 02:53:30;;;;;;;11.60;3.00;;;;;;;-128.00;-1.00;-1.00;105062;1262;1047463;-82
2023/01/31 02:56:13;;;;;;;9.20;2.50;;;;;;;-128.00;-1.00;-1.00;105055;1262;1062419;-83
2023/01/31 02:58:47;;;;;;;11.70;2.30;;;;;;;-128.00;-1.00;-1.00;105047;1262;1055237;-83
2023/01/31 03:01:19;;;;;;;9.40;2.60;;;;;;;-128.00;-1.00;-1.00;105066;1262;1058792;-84
2023/01/31 03:03:46;;;;;;;8.80;3.00;;;;;;;-128.00;-1.00;-1.00;105031;1262;1044530;-85
2023/01/31 03:06:28;;;;;;;9.10;2.00;;;;;;;-128.00;-1.00;-1.00;104848;1262;1004042;-84
2023/01/31 03:09:08;;;;;;;8.30;3.00;;;;;;;-128.00;-1.00;-1.00;105007;1262;1062532;-84
2023/01/31 03:11:56;;;;;;;10.40;2.80;;;;;;;-128.00;-1.00;-1.00;104923;1262;1056807;-81
2023/01/31 03:15:12;;;;;;;9.40;2.40;;;;;;;-128.00;-1.00;-1.00;105012;1262;1059050;-81
2023/01/31 03:17:54;;;;;;;9.00;3.30;;;;;;;-128.00;-1.00;-1.00;104450;1270;1045361;-82
2023/01/31 03:20:28;;;;;;;7.60;2.30;;;;;;;-128.00;-1.00;-1.00;104162;1270;1045970;-82
2023/01/31 03:23:01;;;;;;;8.50;2.70;;;;;;;-128.00;-1.00;-1.00;104254;1270;1061551;-81
2023/01/31 03:25:33;;;;;;;9.50;3.00;;;;;;;-128.00;-1.00;-1.00;104608;1270;1056235;-82
2023/01/31 03:28:05;;;;;;;6.50;1.90;;;;;;;-128.00;-1.00;-1.00;104528;1270;1058538;-81
2023/01/31 03:30:53;;;;;;;8.20;3.00;;;;;;;-128.00;-1.00;-1.00;104344;1270;1044852;-82
2023/01/31 03:33:47;;;;;;;8.40;3.10;;;;;;;-128.00;-1.00;-1.00;104544;1270;1047071;-82
2023/01/31 03:36:27;;;;;;;12.40;4.30;;;;;;;-128.00;-1.00;-1.00;104518;1270;1060802;-80
2023/01/31 03:39:18;;;;;;;8.00;3.40;;;;;;;-128.00;-1.00;-1.00;104498;1270;1055991;-80
2023/01/31 03:41:53;;;;;;;13.10;5.30;;;;;;;-128.00;-1.00;-1.00;104444;1270;1060778;-78
2023/01/31 03:44:31;;;;;;;12.70;4.50;;;;;;;-128.00;-1.00;-1.00;104481;1270;1046099;-78
2023/01/31 03:47:05;;;;;;;11.80;4.40;;;;;;;-128.00;-1.00;-1.00;104079;1270;1046662;-79
2023/01/31 03:49:33;;;;;;;17.00;5.80;;;;;;;-128.00;-1.00;-1.00;104479;1270;1063531;-79
2023/01/31 03:52:05;;;;;;;20.90;7.60;;;;;;;-128.00;-1.00;-1.00;104448;1270;1005103;-79
2023/01/31 03:54:38;;;;;;;14.80;6.20;;;;;;;-128.00;-1.00;-1.00;104813;1262;1059523;-78
2023/01/31 03:57:16;;;;;;;14.60;5.90;;;;;;;-128.00;-1.00;-1.00;105023;1262;1046834;-79
2023/01/31 03:59:52;;;;;;;20.50;5.30;;;;;;;-128.00;-1.00;-1.00;105000;1262;1046568;-79
2023/01/31 04:02:22;;;;;;;10.20;4.60;;;;;;;-128.00;-1.00;-1.00;105015;1262;1060648;-79
2023/01/31 04:05:11;;;;;;;10.40;3.70;;;;;;;-128.00;-1.00;-1.00;104998;1262;1054704;-78
2023/01/31 04:07:39;;;;;;;12.10;3.10;;;;;;;-128.00;-1.00;-1.00;104997;1262;1058852;-79
2023/01/31 04:10:14;;;;;;;7.10;2.60;;;;;;;-128.00;-1.00;-1.00;105000;1262;1005198;-79
2023/01/31 04:12:41;;;;;;;8.90;2.80;;;;;;;-128.00;-1.00;-1.00;104947;1262;1046373;-78
2023/01/31 04:15:09;;;;;;;7.80;3.00;;;;;;;-128.00;-1.00;-1.00;105008;1262;1005496;-78
2023/01/31 04:17:35;;;;;;;6.00;1.90;;;;;;;-128.00;-1.00;-1.00;104934;1262;1003749;-78
2023/01/31 04:20:04;;;;;;;8.90;2.60;;;;;;;-128.00;-1.00;-1.00;105009;1262;1004063;-77
2023/01/31 04:22:31;;;;;;;9.40;2.60;;;;;;;-128.00;-1.00;-1.00;104849;1262;1044539;-77
2023/01/31 04:24:58;;;;;;;10.20;2.20;;;;;;;-128.00;-1.00;-1.00;105016;1262;1005259;-78
2023/01/31 04:27:24;;;;;;;7.00;2.30;;;;;;;-128.00;-1.00;-1.00;105043;1262;1005200;-79
2023/01/31 04:29:51;;;;;;;8.30;3.10;;;;;;;-128.00;-1.00;-1.00;104840;1262;1004649;-79
2023/01/31 04:32:17;;;;;;;7.70;2.50;;;;;;;-128.00;-1.00;-1.00;105010;1262;1003936;-80
2023/01/31 04:34:44;;;;;;;4.10;2.20;;;;;;;-128.00;-1.00;-1.00;104924;1262;1004526;-78
2023/01/31 04:37:11;;;;;;;10.20;2.60;;;;;;;-128.00;-1.00;-1.00;103525;1262;1004308;-78
2023/01/31 04:39:37;;;;;;;4.70;2.00;;;;;;;-128.00;-1.00;-1.00;104981;1262;1004010;-78
2023/01/31 04:42:04;;;;;;;6.50;2.40;;;;;;;-128.00;-1.00;-1.00;105006;1262;1004387;-77
2023/01/31 04:44:30;;;;;;;6.70;3.10;;;;;;;-128.00;-1.00;-1.00;104999;1262;1003235;-78
2023/01/31 04:46:57;;;;;;;7.70;2.90;;;;;;;-128.00;-1.00;-1.00;105000;1262;1004189;-78
2023/01/31 04:49:24;;;;;;;4.00;2.20;;;;;;;-128.00;-1.00;-1.00;104991;1262;1004572;-77
2023/01/31 04:51:51;;;;;;;7.10;2.50;;;;;;;-128.00;-1.00;-1.00;105011;1262;1004708;-79
2023/01/31 04:54:17;;;;;;;7.50;3.20;;;;;;;-128.00;-1.00;-1.00;105009;1262;1004556;-78
2023/01/31 04:56:44;;;;;;;7.80;2.60;;;;;;;-128.00;-1.00;-1.00;105005;1262;1004711;-78
2023/01/31 04:59:11;;;;;;;6.40;2.20;;;;;;;-128.00;-1.00;-1.00;104896;1262;1004239;-78
2023/01/31 05:01:40;;;;;;;12.70;9.20;;;;;;;-128.00;-1.00;-1.00;105045;1262;1004886;-78
2023/01/31 05:04:07;;;;;;;17.10;7.60;;;;;;;-128.00;-1.00;-1.00;105006;1262;1061741;-78
2023/01/31 05:06:34;;;;;;;7.40;3.80;;;;;;;-128.00;-1.00;-1.00;104849;1262;1004345;-78
2023/01/31 05:09:01;;;;;;;8.80;3.20;;;;;;;-128.00;-1.00;-1.00;105029;1262;1004618;-77
2023/01/31 05:11:28;;;;;;;9.80;3.50;;;;;;;-128.00;-1.00;-1.00;105003;1262;1003807;-80
2023/01/31 05:13:55;;;;;;;11.10;5.20;;;;;;;-128.00;-1.00;-1.00;105071;1262;1004387;-79
2023/01/31 05:16:21;;;;;;;16.90;6.10;;;;;;;-128.00;-1.00;-1.00;104996;1264;1003996;-79
2023/01/31 05:18:49;;;;;;;7.30;3.70;;;;;;;-128.00;-1.00;-1.00;104849;1262;1004355;-79
2023/01/31 05:21:16;;;;;;;11.40;5.10;;;;;;;-128.00;-1.00;-1.00;104996;1262;1004014;-79
2023/01/31 05:23:43;;;;;;;13.40;4.20;;;;;;;-128.00;-1.00;-1.00;104990;1262;1003654;-79
2023/01/31 05:26:10;;;;;;;12.20;4.40;;;;;;;-128.00;-1.00;-1.00;105025;1262;1004107;-79
2023/01/31 05:28:36;;;;;;;11.40;4.30;;;;;;;-128.00;-1.00;-1.00;104789;1262;1004538;-79
2023/01/31 05:31:06;;;;;;;10.90;3.90;;;;;;;-128.00;-1.00;-1.00;105024;1264;1004051;-79
2023/01/31 05:33:34;;;;;;;11.10;3.70;;;;;;;-128.00;-1.00;-1.00;104992;1262;1059364;-79
2023/01/31 05:36:01;;;;;;;10.60;3.40;;;;;;;-128.00;-1.00;-1.00;104920;1262;1004273;-78
2023/01/31 05:38:28;;;;;;;6.80;2.90;;;;;;;-128.00;-1.00;-1.00;105031;1262;1003515;-79
2023/01/31 05:40:55;;;;;;;10.10;3.40;;;;;;;-128.00;-1.00;-1.00;104878;1262;1004273;-79
2023/01/31 05:43:22;;;;;;;9.90;3.10;;;;;;;-128.00;-1.00;-1.00;105041;1262;1003728;-79
2023/01/31 05:45:48;;;;;;;7.70;3.90;;;;;;;-128.00;-1.00;-1.00;105027;1262;1003430;-79
2023/01/31 05:48:15;;;;;;;7.50;3.90;;;;;;;-128.00;-1.00;-1.00;104993;1262;1003342;-80
2023/01/31 05:50:42;;;;;;;11.80;4.30;;;;;;;-128.00;-1.00;-1.00;105017;1262;1003981;-80
2023/01/31 05:53:09;;;;;;;13.40;3.80;;;;;;;-128.00;-1.00;-1.00;105015;1262;1004955;-80
2023/01/31 05:55:37;;;;;;;9.90;4.10;;;;;;;-128.00;-1.00;-1.00;104889;1263;1004630;-80
2023/01/31 05:58:04;;;;;;;10.30;3.20;;;;;;;-128.00;-1.00;-1.00;105001;1262;1004242;-80
2023/01/31 06:00:31;;;;;;;11.50;3.90;;;;;;;-128.00;-1.00;-1.00;105019;1262;1004257;-81
2023/01/31 06:02:58;;;;;;;12.00;3.80;;;;;;;-128.00;-1.00;-1.00;105011;1262;1004247;-82
2023/01/31 06:05:26;;;;;;;8.40;3.30;;;;;;;-128.00;-1.00;-1.00;105036;1262;1004857;-81
2023/01/31 06:07:53;;;;;;;6.80;3.30;;;;;;;-128.00;-1.00;-1.00;104762;1262;1004833;-80
2023/01/31 06:10:20;;;;;;;12.80;3.40;;;;;;;-128.00;-1.00;-1.00;105000;1262;1004674;-81
2023/01/31 06:12:46;;;;;;;8.10;3.30;;;;;;;-128.00;-1.00;-1.00;105008;1262;1004595;-81
2023/01/31 06:15:13;;;;;;;13.40;4.00;;;;;;;-128.00;-1.00;-1.00;105020;1262;1004592;-80
2023/01/31 06:17:40;;;;;;;5.50;2.60;;;;;;;-128.00;-1.00;-1.00;105020;1262;1004633;-82
2023/01/31 06:20:07;;;;;;;10.50;3.00;;;;;;;-128.00;-1.00;-1.00;105000;1262;1004786;-81
2023/01/31 06:22:34;;;;;;;10.50;2.90;;;;;;;-128.00;-1.00;-1.00;104790;1262;1004045;-81
2023/01/31 06:25:01;;;;;;;10.60;3.00;;;;;;;-128.00;-1.00;-1.00;105003;1262;1004475;-81
2023/01/31 06:27:31;;;;;;;7.20;2.60;;;;;;;-128.00;-1.00;-1.00;105014;1262;1004149;-81
2023/01/31 06:29:58;;;;;;;10.30;3.20;;;;;;;-128.00;-1.00;-1.00;105037;1262;1061140;-81
2023/01/31 06:32:24;;;;;;;6.00;2.60;;;;;;;-128.00;-1.00;-1.00;105031;1262;1004260;-81
2023/01/31 06:34:51;;;;;;;11.30;4.00;;;;;;;-128.00;-1.00;-1.00;105018;1262;1003941;-81
2023/01/31 06:37:18;;;;;;;7.70;3.50;;;;;;;-128.00;-1.00;-1.00;104997;1262;1004048;-81
2023/01/31 06:39:45;;;;;;;14.20;6.60;;;;;;;-128.00;-1.00;-1.00;105026;1262;1004526;-81
2023/01/31 06:42:11;;;;;;;15.20;8.70;;;;;;;-128.00;-1.00;-1.00;104999;1262;1004399;-81
2023/01/31 06:44:38;;;;;;;12.90;8.20;;;;;;;-128.00;-1.00;-1.00;104768;1262;1003708;-80
2023/01/31 06:47:05;;;;;;;13.70;7.40;;;;;;;-128.00;-1.00;-1.00;105021;1262;1004346;-82
2023/01/31 06:49:32;;;;;;;13.10;6.60;;;;;;;-128.00;-1.00;-1.00;104873;1262;1004835;-80
2023/01/31 06:51:58;;;;;;;11.50;4.20;;;;;;;-128.00;-1.00;-1.00;105043;1262;1004688;-80
2023/01/31 06:54:25;;;;;;;13.30;5.90;;;;;;;-128.00;-1.00;-1.00;104794;1266;1004196;-80
2023/01/31 06:56:52;;;;;;;11.50;4.70;;;;;;;-128.00;-1.00;-1.00;104781;1266;1004916;-80
2023/01/31 06:59:19;;;;;;;11.90;6.30;;;;;;;-128.00;-1.00;-1.00;104784;1266;1004335;-80
2023/01/31 07:01:46;;;;;;;21.30;9.10;;;;;;;-128.00;-1.00;-1.00;104718;1266;1004874;-80
2023/01/31 07:04:13;;;;;;;15.00;9.10;;;;;;;-128.00;-1.00;-1.00;104857;1266;1004139;-80
2023/01/31 07:06:40;;;;;;;14.80;8.00;;;;;;;-128.00;-1.00;-1.00;104788;1266;1003948;-79
2023/01/31 07:09:07;;;;;;;14.30;8.50;;;;;;;-128.00;-1.00;-1.00;104709;1266;1004098;-80
2023/01/31 07:11:35;;;;;;;11.30;5.90;;;;;;;-128.00;-1.00;-1.00;104789;1266;1004005;-79
2023/01/31 07:14:02;;;;;;;12.70;5.80;;;;;;;-128.00;-1.00;-1.00;104782;1266;1046020;-79
2023/01/31 07:16:30;;;;;;;12.30;6.10;;;;;;;-128.00;-1.00;-1.00;104795;1266;1004735;-78
2023/01/31 07:18:58;;;;;;;10.30;4.70;;;;;;;-128.00;-1.00;-1.00;104762;1266;1003742;-79
2023/01/31 07:21:25;;;;;;;11.70;4.50;;;;;;;-128.00;-1.00;-1.00;104771;1266;1004502;-78
2023/01/31 07:23:52;;;;;;;12.70;4.20;;;;;;;-128.00;-1.00;-1.00;104365;1266;1004646;-79
2023/01/31 07:26:19;;;;;;;12.90;5.20;;;;;;;-128.00;-1.00;-1.00;104945;1262;1003803;-78
2023/01/31 07:28:48;;;;;;;10.70;5.10;;;;;;;-128.00;-1.00;-1.00;105015;1262;1045968;-79
2023/01/31 07:31:15;;;;;;;12.80;4.00;;;;;;;-128.00;-1.00;-1.00;104723;1262;1005200;-79
2023/01/31 07:33:42;;;;;;;11.20;3.60;;;;;;;-128.00;-1.00;-1.00;105004;1262;1003787;-78
2023/01/31 07:36:13;;;;;;;9.20;4.00;;;;;;;-128.00;-1.00;-1.00;104985;1262;1004179;-79
2023/01/31 07:38:40;;;;;;;12.90;4.10;;;;;;;-128.00;-1.00;-1.00;104759;1266;1044767;-78
2023/01/31 07:41:10;;;;;;;11.80;4.30;;;;;;;-128.00;-1.00;-1.00;104372;1266;1003862;-78
2023/01/31 07:43:37;;;;;;;12.30;4.30;;;;;;;-128.00;-1.00;-1.00;104662;1266;1061770;-79
2023/01/31 07:46:09;;;;;;;15.20;6.70;;;;;;;-128.00;-1.00;-1.00;104779;1266;1004402;-77
2023/01/31 07:48:36;;;;;;;18.70;8.20;;;;;;;-128.00;-1.00;-1.00;104771;1266;1059745;-78
2023/01/31 07:51:03;;;;;;;18.00;8.20;;;;;;;-128.00;-1.00;-1.00;104617;1266;1003881;-78
2023/01/31 07:53:33;;;;;;;22.70;9.90;;;;;;;-128.00;-1.00;-1.00;104647;1266;1004238;-78
2023/01/31 07:56:14;;;;;;;16.60;9.20;;;;;;;-128.00;-1.00;-1.00;104773;1266;1062001;-78
2023/01/31 07:58:44;;;;;;;19.50;8.80;;;;;;;-128.00;-1.00;-1.00;104806;1266;1056285;-78
2023/01/31 08:04:10;;;;;;;20.20;8.10;;;;;;;-128.00;-1.00;-1.00;103475;1266;1693310;-78
2023/01/31 08:06:39;;;;;;;13.90;8.30;;;;;;;-128.00;-1.00;-1.00;104710;1266;1048259;-80
2023/01/31 08:09:06;;;;;;;15.90;6.90;;;;;;;-128.00;-1.00;-1.00;104822;1262;1062187;-78
2023/01/31 08:11:34;;;;;;;16.00;6.30;;;;;;;-128.00;-1.00;-1.00;104723;1266;1004375;-78
2023/01/31 08:14:02;;;;;;;16.90;6.60;;;;;;;-128.00;-1.00;-1.00;104780;1266;1004565;-78
2023/01/31 08:16:30;;;;;;;18.10;7.00;;;;;;;-128.00;-1.00;-1.00;104527;1266;1004981;-77
2023/01/31 08:18:57;;;;;;;21.10;7.70;;;;;;;-128.00;-1.00;-1.00;104800;1266;1046432;-78
2023/01/31 08:21:24;;;;;;;22.50;8.20;;;;;;;-128.00;-1.00;-1.00;104796;1266;1004144;-78
2023/01/31 08:23:51;;;;;;;22.80;9.40;;;;;;;-128.00;-1.00;-1.00;104753;1266;1004246;-79
2023/01/31 08:26:21;;;;;;;25.50;9.50;;;;;;;-128.00;-1.00;-1.00;104561;1266;1004890;-78
2023/01/31 08:28:52;;;;;;;15.90;7.30;;;;;;;-128.00;-1.00;-1.00;104761;1266;1045472;-78
2023/01/31 08:31:22;;;;;;;16.10;7.50;;;;;;;-128.00;-1.00;-1.00;104545;1266;1048286;-78
2023/01/31 08:33:51;;;;;;;17.10;7.20;;;;;;;-128.00;-1.00;-1.00;104770;1266;1061604;-78
2023/01/31 08:36:21;;;;;;;17.10;6.70;;;;;;;-128.00;-1.00;-1.00;104791;1266;1054680;-78
2023/01/31 08:38:48;;;;;;;15.90;7.20;;;;;;;-128.00;-1.00;-1.00;104673;1266;1060211;-78
2023/01/31 08:41:17;;;;;;;18.30;6.40;;;;;;;-128.00;-1.00;-1.00;104636;1266;1003400;-78
2023/01/31 08:43:44;;;;;;;15.90;5.40;;;;;;;-128.00;-1.00;-1.00;104953;1262;1003848;-77
2023/01/31 08:46:12;;;;;;;16.80;6.20;;;;;;;-128.00;-1.00;-1.00;104732;1262;1004461;-77
2023/01/31 08:48:40;;;;;;;14.70;5.50;;;;;;;-128.00;-1.00;-1.00;104830;1262;1003762;-78
2023/01/31 08:51:10;;;;;;;13.90;4.90;;;;;;;-128.00;-1.00;-1.00;104893;1262;1003733;-78
2023/01/31 08:53:38;;;;;;;13.10;5.20;;;;;;;-128.00;-1.00;-1.00;104987;1262;1046111;-78
2023/01/31 08:56:07;;;;;;;14.70;5.50;;;;;;;-128.00;-1.00;-1.00;104782;1266;1047956;-79
2023/01/31 08:58:36;;;;;;;15.50;5.70;;;;;;;-128.00;-1.00;-1.00;104019;1266;1061235;-78
2023/01/31 09:01:05;;;;;;;14.80;5.40;;;;;;;-128.00;-1.00;-1.00;104796;1266;1054903;-77
2023/01/31 09:03:32;;;;;;;14.50;5.00;;;;;;;-128.00;-1.00;-1.00;104777;1266;1058257;-78
2023/01/31 09:06:00;;;;;;;12.60;4.50;;;;;;;-128.00;-1.00;-1.00;104762;1266;1004437;-79
2023/01/31 09:08:28;;;;;;;15.40;4.90;;;;;;;-128.00;-1.00;-1.00;104790;1266;1004096;-77
2023/01/31 09:10:56;;;;;;;12.40;4.80;;;;;;;-128.00;-1.00;-1.00;104496;1266;1003448;-77
2023/01/31 09:13:23;;;;;;;10.70;4.60;;;;;;;-128.00;-1.00;-1.00;104791;1266;1006042;-78
2023/01/31 09:16:07;;;;;;;10.60;4.70;;;;;;;-128.00;-1.00;-1.00;104772;1266;1003704;-75
2023/01/31 09:18:35;;;;;;;12.80;5.00;;;;;;;-128.00;-1.00;-1.00;104336;1275;1045052;-75
2023/01/31 09:21:04;;;;;;;15.40;5.70;;;;;;;-128.00;-1.00;-1.00;104776;1266;1047365;-75
2023/01/31 09:23:31;;;;;;;14.90;6.00;;;;;;;-128.00;-1.00;-1.00;104744;1266;1060259;-75
2023/01/31 09:25:57;;;;;;;19.90;7.70;;;;;;;-128.00;-1.00;-1.00;104783;1266;1003595;-76
2023/01/31 09:28:24;;;;;;;14.90;6.60;;;;;;;-128.00;-1.00;-1.00;104894;1264;1004388;-75
2023/01/31 09:30:54;;;;;;;16.70;6.40;;;;;;;-128.00;-1.00;-1.00;104901;1264;1005175;-75
2023/01/31 09:33:21;;;;;;;18.20;7.90;;;;;;;-128.00;-1.00;-1.00;104895;1264;1046989;-76
2023/01/31 09:36:00;;;;;;;17.40;7.20;;;;;;;-128.00;-1.00;-1.00;104915;1264;1003979;-76
2023/01/31 09:38:27;;;;;;;15.40;6.00;;;;;;;-128.00;-1.00;-1.00;104844;1264;1054764;-76
2023/01/31 09:40:55;;;;;;;16.30;6.50;;;;;;;-128.00;-1.00;-1.00;104911;1264;1004552;-76
2023/01/31 09:43:28;;;;;;;17.00;5.70;;;;;;;-128.00;-1.00;-1.00;104894;1263;1044893;-76
2023/01/31 09:45:59;;;;;;;21.80;8.10;;;;;;;-128.00;-1.00;-1.00;104938;1264;1046866;-76
2023/01/31 09:48:29;;;;;;;;;;;;;;;-128.00;-1.00;-1.00;104933;1264;1061773;-76
2023/01/31 09:50:57;;;;;;;;;;;;;;;-128.00;-1.00;-1.00;104938;1264;1055467;-75
2023/01/31 09:53:30;;;;;;;16.90;8.20;;;;;;;-128.00;-1.00;-1.00;104911;1264;1003758;-76
2023/01/31 09:56:13;;;;;;;18.40;9.30;;;;;;;-128.00;-1.00;-1.00;104920;1262;1044854;-75
2023/01/31 09:59:01;;;;;;;16.80;8.20;;;;;;;-128.00;-1.00;-1.00;105023;1262;1046185;-76
2023/01/31 10:01:37;;;;;;;19.10;8.90;;;;;;;-128.00;-1.00;-1.00;104697;1262;1063480;-76
2023/01/31 10:04:33;;;;;;;23.10;9.50;;;;;;;-128.00;-1.00;-1.00;105013;1264;1056346;-76
2023/01/31 10:07:26;;;;;;;18.00;8.20;;;;;;;-128.00;-1.00;-1.00;104858;1262;1059267;-75
2023/01/31 10:10:01;;;;;;;19.90;6.70;;;;;;;-128.00;-1.00;-1.00;104383;1270;1046505;-75
2023/01/31 10:12:47;;;;;;;11.70;4.90;;;;;;;-128.00;-1.00;-1.00;104239;1270;1047656;-76
2023/01/31 10:15:40;;;;;;;12.70;4.70;;;;;;;-128.00;-1.00;-1.00;104386;1270;1061401;-75
2023/01/31 10:18:27;;;;;;;10.80;5.00;;;;;;;-128.00;-1.00;-1.00;104368;1270;1055741;-75
2023/01/31 10:20:59;;;;;;;11.30;3.40;;;;;;;-128.00;-1.00;-1.00;104393;1270;1058338;-75
2023/01/31 10:23:32;;;;;;;10.90;3.20;;;;;;;-128.00;-1.00;-1.00;104378;1270;1046117;-76
2023/01/31 10:26:23;;;;;;;11.30;3.40;;;;;;;-128.00;-1.00;-1.00;104392;1269;1046287;-76
2023/01/31 10:29:01;;;;;;;7.40;2.60;;;;;;;-128.00;-1.00;-1.00;104393;1270;1061821;-76
2023/01/31 10:31:46;;;;;;;6.30;2.90;;;;;;;-128.00;-1.00;-1.00;104174;1273;1055023;-76
2023/01/31 10:34:26;;;;;;;7.50;2.90;;;;;;;-128.00;-1.00;-1.00;104197;1273;1058695;-76
2023/01/31 10:36:59;;;;;;;8.10;2.30;;;;;;;-128.00;-1.00;-1.00;104187;1273;1045121;-76
2023/01/31 10:39:43;;;;;;;8.10;2.80;;;;;;;-128.00;-1.00;-1.00;104168;1273;1047042;-76
2023/01/31 10:42:30;;;;;;;6.00;2.70;;;;;;;-128.00;-1.00;-1.00;104192;1273;1061354;-76
2023/01/31 10:45:18;;;;;;;11.40;3.50;;;;;;;-128.00;-1.00;-1.00;104210;1273;1055459;-75
2023/01/31 10:48:00;;;;;;;7.90;2.70;;;;;;;-128.00;-1.00;-1.00;104530;1265;1058516;-75
2023/01/31 10:50:38;;;;;;;9.50;3.30;;;;;;;-128.00;-1.00;-1.00;104780;1265;1046001;-76
2023/01/31 10:53:29;;;;;;;8.10;2.70;;;;;;;-128.00;-1.00;-1.00;104819;1266;1047242;-76
2023/01/31 10:56:07;;;;;;;9.90;3.70;;;;;;;-128.00;-1.00;-1.00;104826;1267;1062344;-76
2023/01/31 10:58:35;;;;;;;10.00;3.40;;;;;;;-128.00;-1.00;-1.00;104812;1266;1055435;-76
2023/01/31 11:01:10;;;;;;;10.40;3.50;;;;;;;-128.00;-1.00;-1.00;104798;1265;1004219;-76
2023/01/31 11:03:37;;;;;;;10.00;3.30;;;;;;;-128.00;-1.00;-1.00;104956;1263;1045671;-76
2023/01/31 11:06:05;;;;;;;10.90;4.30;;;;;;;-128.00;-1.00;-1.00;104997;1263;1004726;-76
2023/01/31 11:08:41;;;;;;;8.50;4.20;;;;;;;-128.00;-1.00;-1.00;105011;1263;1003837;-76
2023/01/31 11:11:13;;;;;;;14.70;5.20;;;;;;;-128.00;-1.00;-1.00;105013;1262;1055585;-75
2023/01/31 11:13:40;;;;;;;12.70;5.10;;;;;;;-128.00;-1.00;-1.00;104915;1263;1059279;-77
2023/01/31 11:16:10;;;;;;;16.80;5.60;;;;;;;-128.00;-1.00;-1.00;105000;1263;1004632;-77
2023/01/31 11:18:45;;;;;;;10.90;4.50;;;;;;;-128.00;-1.00;-1.00;104816;1264;1046463;-76
2023/01/31 11:21:33;;;;;;;8.70;3.70;;;;;;;-128.00;-1.00;-1.00;105004;1263;1061248;-78
2023/01/31 11:24:05;;;;;;;13.80;5.00;;;;;;;-128.00;-1.00;-1.00;105026;1263;1055365;-76
2023/01/31 11:26:35;;;;;;;10.10;4.50;;;;;;;-128.00;-1.00;-1.00;105005;1266;1058147;-76
2023/01/31 11:29:19;;;;;;;10.20;3.80;;;;;;;-128.00;-1.00;-1.00;105009;1264;1045942;-75
2023/01/31 11:31:46;;;;;;;8.10;3.20;;;;;;;-128.00;-1.00;-1.00;104885;1262;1046766;-76
2023/01/31 11:34:23;;;;;;;11.60;3.50;;;;;;;-128.00;-1.00;-1.00;104730;1262;1003587;-76